Terminal Aerodrome Forecast
Issued by NWS Sterling, VA

Current Version | Previous Version | Text Only | Print | Product List | Glossary Off
Versions: 1 2 3 4 5 6 7 8 9 10 11 12 13 14 15 16 17 18 19 20 21 22 23 24

531
FTUS41 KLWX 281447 AAA
TAFDCA
TAF AMD
KDCA 281447Z 2815/2912 00000KT P6SM BKN120
     FM281900 00000KT P6SM -TSRA BKN040CB
     FM282100 VRB03KT P6SM TSRA BKN060CB
     FM290300 12004KT 6SM SHRA VCTS OVC060CB
     FM290600 15004KT 5SM SHRA OVC050
     FM290900 21004KT P6SM SHRA BKN060
     FM291100 27005KT P6SM SHRA BKN060=

USA.gov is the U.S. government's official web portal to all federal, state and local government web resources and services.